Time;durP1;ratioP1;P1;durP2;ratioP2;P2;SDS_P1;SDS_P2;PMS_P1;PMS_P2;Temp;Humidity;BMP_temperature;BMP_pressure;BME280_temperature;BME280_humidity;BME280_pressure;Samples;Min_cycle;Max_cycle;Signal;HPM_P1;HPM_P2
2022/06/07 00:00:01;;;;;;;13.45;8.35;;;;;;;;;;4998766;28;20046;-75
2022/06/07 00:02:30;;;;;;;11.40;8.55;;;;;;;;;;5001442;28;20022;-75
2022/06/07 00:04:57;;;;;;;11.27;8.40;;;;;;;;;;4986603;28;20029;-77
2022/06/07 00:07:24;;;;;;;10.65;7.97;;;;;;;;;;4987969;28;20263;-74
2022/06/07 00:09:50;;;;;;;11.85;8.25;;;;;;;;;;4988664;28;20023;-76
2022/06/07 00:12:20;;;;;;;12.02;8.93;;;;;;;;;;4989598;28;20107;-75
2022/06/07 00:14:46;;;;;;;12.25;8.73;;;;;;;;;;4986856;28;20030;-76
2022/06/07 00:17:12;;;;;;;12.80;8.60;;;;;;;;;;4990336;28;20031;-75
2022/06/07 00:19:38;;;;;;;10.75;8.52;;;;;;;;;;4991394;28;20045;-75
2022/06/07 00:22:05;;;;;;;10.93;7.80;;;;;;;;;;4989375;28;20550;-76
2022/06/07 00:24:31;;;;;;;10.48;8.77;;;;;;;;;;4985488;28;20584;-75
2022/06/07 00:26:57;;;;;;;12.80;9.55;;;;;;;;;;4994535;28;20013;-76
2022/06/07 00:29:24;;;;;;;11.13;8.73;;;;;;;;;;4982894;28;20046;-76
2022/06/07 00:31:50;;;;;;;12.25;7.80;;;;;;;;;;4990715;28;20435;-76
2022/06/07 00:34:16;;;;;;;11.60;8.70;;;;;;;;;;4979891;28;20037;-75
2022/06/07 00:36:43;;;;;;;11.45;8.95;;;;;;;;;;4986196;28;20141;-75
2022/06/07 00:39:09;;;;;;;10.27;7.55;;;;;;;;;;5000144;28;20521;-76
2022/06/07 00:41:35;;;;;;;9.40;6.90;;;;;;;;;;4987530;28;20448;-76
2022/06/07 00:44:20;;;;;;;8.98;7.40;;;;;;;;;;4984605;28;20026;-75
2022/06/07 00:46:46;;;;;;;9.30;7.05;;;;;;;;;;4992275;28;20503;-76
2022/06/07 00:49:15;;;;;;;12.23;7.38;;;;;;;;;;4990225;28;20026;-76
2022/06/07 00:51:41;;;;;;;9.25;7.35;;;;;;;;;;4994578;28;20034;-76
2022/06/07 00:54:07;;;;;;;8.45;7.50;;;;;;;;;;4985555;28;20027;-76
2022/06/07 00:56:33;;;;;;;13.48;8.32;;;;;;;;;;4999352;28;20061;-75
2022/06/07 00:59:03;;;;;;;12.45;8.77;;;;;;;;;;5002629;28;20084;-75
2022/06/07 01:01:29;;;;;;;10.77;7.93;;;;;;;;;;4982906;28;20034;-75
2022/06/07 01:03:55;;;;;;;12.35;7.57;;;;;;;;;;4991764;28;20025;-76
2022/06/07 01:11:51;;;;;;;11.85;8.35;;;;;;;;;;4992745;28;20543;-76
2022/06/07 01:14:17;;;;;;;12.23;7.45;;;;;;;;;;4987975;28;20023;-75
2022/06/07 01:16:43;;;;;;;16.17;10.55;;;;;;;;;;4984595;28;20031;-75
2022/06/07 01:19:09;;;;;;;27.17;13.40;;;;;;;;;;4991314;28;20021;-75
2022/06/07 01:21:37;;;;;;;12.48;9.27;;;;;;;;;;4997497;28;20034;-76
2022/06/07 01:24:03;;;;;;;15.82;10.52;;;;;;;;;;4992164;28;20050;-75
2022/06/07 01:26:29;;;;;;;18.08;12.13;;;;;;;;;;4990009;28;20042;-75
2022/06/07 01:28:56;;;;;;;15.82;10.63;;;;;;;;;;4977574;28;20047;-75
2022/06/07 01:31:22;;;;;;;12.77;8.57;;;;;;;;;;4991420;28;20057;-75
2022/06/07 01:33:48;;;;;;;21.10;13.73;;;;;;;;;;4991293;28;20041;-75
2022/06/07 01:36:16;;;;;;;17.45;12.45;;;;;;;;;;4990000;28;20488;-75
2022/06/07 01:38:43;;;;;;;14.25;10.20;;;;;;;;;;4993830;28;20042;-75
2022/06/07 01:43:55;;;;;;;;;;;;;;;;;;4989529;28;20045;-75
2022/06/07 01:46:21;;;;;;;14.32;9.20;;;;;;;;;;4986834;28;19917;-75
2022/06/07 01:48:48;;;;;;;14.18;9.15;;;;;;;;;;4986049;28;20344;-75
2022/06/07 01:51:15;;;;;;;13.32;9.10;;;;;;;;;;4978707;28;20113;-76
2022/06/07 01:53:42;;;;;;;13.48;8.85;;;;;;;;;;4979536;28;20030;-74
2022/06/07 01:56:10;;;;;;;15.88;9.73;;;;;;;;;;4987145;28;20077;-75
2022/06/07 01:58:37;;;;;;;12.85;8.73;;;;;;;;;;4983793;28;20516;-75
2022/06/07 02:01:04;;;;;;;12.25;9.02;;;;;;;;;;4989969;28;20259;-75
2022/06/07 02:03:30;;;;;;;15.05;10.00;;;;;;;;;;4981938;28;20570;-75
2022/06/07 02:05:56;;;;;;;12.98;9.05;;;;;;;;;;4976536;28;20034;-75
2022/06/07 02:08:22;;;;;;;13.68;8.88;;;;;;;;;;4988759;28;20495;-75
2022/06/07 02:10:48;;;;;;;14.73;8.85;;;;;;;;;;4997290;28;20366;-76
2022/06/07 02:13:14;;;;;;;12.93;8.95;;;;;;;;;;4984621;28;20022;-76
2022/06/07 02:15:40;;;;;;;10.63;7.68;;;;;;;;;;4987721;28;20040;-75
2022/06/07 02:18:07;;;;;;;12.18;8.40;;;;;;;;;;4988950;28;20023;-75
2022/06/07 02:20:33;;;;;;;13.88;8.85;;;;;;;;;;4983451;28;20061;-76
2022/06/07 02:22:59;;;;;;;11.25;8.48;;;;;;;;;;4977824;28;20029;-76
2022/06/07 02:25:25;;;;;;;10.50;7.88;;;;;;;;;;4985015;28;20035;-76
2022/06/07 02:27:52;;;;;;;9.88;6.82;;;;;;;;;;4995147;28;20022;-76
2022/06/07 02:30:19;;;;;;;9.05;6.55;;;;;;;;;;4993726;28;20286;-76
2022/06/07 02:32:45;;;;;;;10.57;6.93;;;;;;;;;;4989768;28;20511;-75
2022/06/07 02:35:11;;;;;;;7.00;5.80;;;;;;;;;;4990124;28;20036;-75
2022/06/07 02:37:38;;;;;;;9.00;5.50;;;;;;;;;;4980535;28;20704;-75
2022/06/07 02:40:06;;;;;;;8.80;5.68;;;;;;;;;;4990923;28;20134;-76
2022/06/07 02:42:32;;;;;;;8.00;5.50;;;;;;;;;;4988568;28;20463;-75
2022/06/07 02:44:59;;;;;;;6.50;5.57;;;;;;;;;;4987274;28;20054;-75
2022/06/07 02:47:25;;;;;;;7.22;5.25;;;;;;;;;;4986639;28;20026;-76
2022/06/07 02:49:52;;;;;;;6.53;5.78;;;;;;;;;;4977151;28;20034;-76
2022/06/07 02:52:19;;;;;;;8.15;5.90;;;;;;;;;;4993896;28;20403;-76
2022/06/07 02:54:45;;;;;;;5.85;5.10;;;;;;;;;;4989652;28;20038;-75
2022/06/07 02:57:11;;;;;;;7.28;5.13;;;;;;;;;;4985887;28;20184;-75
2022/06/07 02:59:37;;;;;;;6.88;5.13;;;;;;;;;;4978769;28;20046;-75
2022/06/07 03:02:05;;;;;;;8.50;6.20;;;;;;;;;;4975461;28;20097;-75
2022/06/07 03:04:31;;;;;;;7.32;5.63;;;;;;;;;;4982399;28;20502;-75
2022/06/07 03:06:57;;;;;;;9.20;5.80;;;;;;;;;;4986198;28;20160;-76
2022/06/07 03:09:23;;;;;;;8.85;6.18;;;;;;;;;;4981295;28;20512;-75
2022/06/07 03:11:49;;;;;;;14.32;6.38;;;;;;;;;;4979431;28;20549;-75
2022/06/07 03:14:15;;;;;;;9.15;6.50;;;;;;;;;;4987817;28;20062;-75
2022/06/07 03:16:42;;;;;;;10.23;7.00;;;;;;;;;;4985803;28;20022;-75
2022/06/07 03:19:08;;;;;;;8.18;5.70;;;;;;;;;;4996186;28;20030;-75
2022/06/07 03:21:34;;;;;;;8.88;5.97;;;;;;;;;;4981970;28;20022;-77
2022/06/07 03:24:00;;;;;;;7.82;6.40;;;;;;;;;;4979340;28;20027;-73
2022/06/07 03:26:26;;;;;;;8.88;5.90;;;;;;;;;;4985001;28;20083;-75
2022/06/07 03:28:52;;;;;;;8.52;5.95;;;;;;;;;;4988681;28;20381;-74
2022/06/07 03:31:19;;;;;;;8.05;5.43;;;;;;;;;;4984574;28;20058;-74
2022/06/07 03:33:46;;;;;;;7.40;6.10;;;;;;;;;;4989229;28;20018;-74
2022/06/07 03:36:22;;;;;;;10.43;6.07;;;;;;;;;;4986550;28;20058;-74
2022/06/07 03:38:48;;;;;;;6.88;5.32;;;;;;;;;;4991384;28;20045;-75
2022/06/07 03:41:16;;;;;;;6.70;5.50;;;;;;;;;;4991754;28;20053;-73
2022/06/07 03:43:42;;;;;;;7.93;5.57;;;;;;;;;;4975291;28;20049;-74
2022/06/07 03:46:09;;;;;;;6.18;4.85;;;;;;;;;;4980670;28;20073;-75
2022/06/07 03:48:36;;;;;;;10.07;5.20;;;;;;;;;;4989332;28;20030;-75
2022/06/07 03:51:02;;;;;;;8.07;5.53;;;;;;;;;;4977893;28;20334;-74
2022/06/07 03:53:28;;;;;;;7.03;5.57;;;;;;;;;;4972191;28;20346;-74
2022/06/07 03:55:55;;;;;;;8.35;6.30;;;;;;;;;;4979055;28;20517;-75
2022/06/07 03:58:21;;;;;;;7.07;5.53;;;;;;;;;;4987852;28;20029;-74
2022/06/07 04:00:47;;;;;;;6.22;4.68;;;;;;;;;;4995254;28;20114;-73
2022/06/07 04:03:13;;;;;;;9.10;4.80;;;;;;;;;;4984710;28;20023;-74
2022/06/07 04:05:42;;;;;;;7.15;4.93;;;;;;;;;;4987457;28;20708;-75
2022/06/07 04:08:11;;;;;;;7.05;5.35;;;;;;;;;;4989771;28;20037;-74
2022/06/07 04:10:47;;;;;;;8.80;6.15;;;;;;;;;;4983193;28;20031;-74
2022/06/07 04:13:14;;;;;;;7.43;5.50;;;;;;;;;;4992224;28;20032;-74
2022/06/07 04:15:40;;;;;;;7.00;5.90;;;;;;;;;;4985050;28;20062;-75
2022/06/07 04:18:07;;;;;;;6.43;5.10;;;;;;;;;;4974153;28;20022;-73
2022/06/07 04:20:33;;;;;;;7.18;5.40;;;;;;;;;;4981792;28;20038;-74
2022/06/07 04:22:59;;;;;;;7.93;5.85;;;;;;;;;;4995903;28;20050;-73
2022/06/07 04:25:25;;;;;;;9.00;6.18;;;;;;;;;;4995579;28;20037;-74
2022/06/07 04:27:51;;;;;;;9.50;6.80;;;;;;;;;;4988087;28;20391;-74
2022/06/07 04:30:18;;;;;;;8.75;6.43;;;;;;;;;;4990555;28;20037;-73
2022/06/07 04:32:47;;;;;;;8.05;6.00;;;;;;;;;;4990444;28;20446;-74
2022/06/07 04:35:18;;;;;;;8.93;5.78;;;;;;;;;;4988181;28;20427;-73
2022/06/07 04:37:48;;;;;;;7.75;5.85;;;;;;;;;;4983021;28;20022;-74
2022/06/07 04:40:14;;;;;;;9.57;6.65;;;;;;;;;;5002019;28;20291;-74
2022/06/07 04:42:41;;;;;;;8.35;6.10;;;;;;;;;;5001880;28;20030;-74
2022/06/07 04:45:09;;;;;;;8.95;6.03;;;;;;;;;;4989156;28;20110;-74
2022/06/07 04:47:37;;;;;;;8.07;6.10;;;;;;;;;;4979321;28;20460;-74
2022/06/07 04:50:04;;;;;;;9.20;6.88;;;;;;;;;;4995190;28;20030;-74
2022/06/07 04:52:30;;;;;;;9.63;6.35;;;;;;;;;;4987073;28;20140;-74
2022/06/07 04:54:56;;;;;;;9.68;6.20;;;;;;;;;;5000983;28;20040;-74
2022/06/07 04:57:22;;;;;;;8.73;6.03;;;;;;;;;;4999284;28;20161;-73
2022/06/07 04:59:48;;;;;;;10.02;6.35;;;;;;;;;;4992323;28;20046;-75
2022/06/07 05:02:14;;;;;;;7.63;5.82;;;;;;;;;;5002107;28;20018;-74
2022/06/07 05:04:40;;;;;;;10.02;6.40;;;;;;;;;;4990064;28;20034;-74
2022/06/07 05:07:06;;;;;;;9.73;7.45;;;;;;;;;;4993706;28;20026;-74
2022/06/07 05:09:33;;;;;;;11.35;7.00;;;;;;;;;;4982545;28;20172;-75
2022/06/07 05:11:59;;;;;;;10.27;6.93;;;;;;;;;;4979910;28;20472;-75
2022/06/07 05:14:27;;;;;;;9.50;7.55;;;;;;;;;;4989713;28;20069;-74
2022/06/07 05:16:53;;;;;;;14.25;7.60;;;;;;;;;;4994209;28;20400;-74
2022/06/07 05:19:19;;;;;;;10.63;7.88;;;;;;;;;;4988642;28;20054;-74
2022/06/07 05:21:45;;;;;;;11.02;7.75;;;;;;;;;;4986444;28;20018;-75
2022/06/07 05:24:12;;;;;;;10.90;6.93;;;;;;;;;;5000841;28;20037;-75
2022/06/07 05:26:42;;;;;;;9.73;6.43;;;;;;;;;;4988769;28;20023;-74
2022/06/07 05:29:20;;;;;;;13.43;7.80;;;;;;;;;;4985795;28;20030;-76
2022/06/07 05:31:46;;;;;;;10.52;8.00;;;;;;;;;;4987328;28;20432;-75
2022/06/07 05:34:13;;;;;;;10.10;7.30;;;;;;;;;;4988815;28;20030;-75
2022/06/07 05:36:39;;;;;;;10.43;7.25;;;;;;;;;;4987354;28;20030;-75
2022/06/07 05:39:06;;;;;;;9.75;7.07;;;;;;;;;;4988144;28;20495;-74
2022/06/07 05:41:33;;;;;;;10.30;7.40;;;;;;;;;;4987044;28;20045;-75
2022/06/07 05:43:59;;;;;;;9.90;7.28;;;;;;;;;;4988164;28;20050;-74
2022/06/07 05:46:25;;;;;;;10.00;6.80;;;;;;;;;;4989005;28;20113;-74
2022/06/07 05:48:52;;;;;;;11.20;7.15;;;;;;;;;;4995976;28;20031;-75
2022/06/07 05:51:18;;;;;;;10.30;7.68;;;;;;;;;;4983682;28;20093;-74
2022/06/07 05:53:44;;;;;;;11.15;7.38;;;;;;;;;;4981360;28;20031;-75
2022/06/07 05:56:12;;;;;;;10.70;7.32;;;;;;;;;;4992825;28;20022;-74
2022/06/07 05:58:38;;;;;;;11.77;7.10;;;;;;;;;;4981756;28;20842;-74
2022/06/07 06:01:04;;;;;;;9.93;6.90;;;;;;;;;;4985853;28;20457;-74
2022/06/07 06:03:31;;;;;;;9.75;7.00;;;;;;;;;;4981484;28;20034;-73
2022/06/07 06:05:57;;;;;;;9.23;7.57;;;;;;;;;;4983441;28;20037;-75
2022/06/07 06:11:10;;;;;;;11.82;7.47;;;;;;;;;;4982098;28;20046;-75
2022/06/07 06:13:36;;;;;;;11.07;7.53;;;;;;;;;;4984062;28;20034;-74
2022/06/07 06:16:07;;;;;;;9.93;7.10;;;;;;;;;;4987909;28;20029;-75
2022/06/07 06:18:34;;;;;;;10.93;7.32;;;;;;;;;;4985263;28;20106;-75
2022/06/07 06:21:00;;;;;;;9.15;6.53;;;;;;;;;;4978042;28;20019;-75
2022/06/07 06:23:26;;;;;;;11.13;7.85;;;;;;;;;;4979065;28;20478;-75
2022/06/07 06:25:52;;;;;;;10.25;7.20;;;;;;;;;;4983407;28;20490;-74
2022/06/07 06:28:19;;;;;;;11.77;7.15;;;;;;;;;;4980612;28;20053;-75
2022/06/07 06:30:46;;;;;;;13.15;7.88;;;;;;;;;;4978321;28;20026;-76
2022/06/07 06:33:12;;;;;;;11.32;7.82;;;;;;;;;;4982579;28;20372;-74
2022/06/07 06:35:39;;;;;;;9.77;6.90;;;;;;;;;;4981126;28;20162;-75
2022/06/07 06:38:05;;;;;;;8.65;6.57;;;;;;;;;;4972403;28;20508;-75
2022/06/07 06:40:32;;;;;;;11.68;7.70;;;;;;;;;;4980133;28;20076;-75
2022/06/07 06:42:58;;;;;;;10.02;7.05;;;;;;;;;;4986227;28;20015;-75
2022/06/07 06:45:24;;;;;;;9.77;7.38;;;;;;;;;;4980303;28;20120;-75
2022/06/07 06:47:50;;;;;;;9.80;7.07;;;;;;;;;;4992887;28;20534;-75
2022/06/07 06:50:17;;;;;;;9.90;7.32;;;;;;;;;;5000064;28;20231;-75
2022/06/07 06:52:43;;;;;;;9.38;7.20;;;;;;;;;;4986287;28;20074;-75
2022/06/07 06:55:09;;;;;;;8.98;6.75;;;;;;;;;;4977093;28;20117;-76
2022/06/07 06:57:35;;;;;;;8.93;7.22;;;;;;;;;;4971267;28;20042;-76
2022/06/07 07:00:04;;;;;;;11.30;7.68;;;;;;;;;;4978528;28;20177;-76
2022/06/07 07:02:30;;;;;;;10.40;7.35;;;;;;;;;;4977503;28;20057;-76
2022/06/07 07:04:56;;;;;;;12.15;7.68;;;;;;;;;;4985293;28;20033;-76
2022/06/07 07:07:23;;;;;;;10.73;7.32;;;;;;;;;;4980410;28;20126;-76
2022/06/07 07:09:50;;;;;;;10.40;7.60;;;;;;;;;;4984047;28;20039;-76
2022/06/07 07:12:16;;;;;;;10.00;7.15;;;;;;;;;;4985280;28;20030;-75
2022/06/07 07:14:43;;;;;;;9.98;7.75;;;;;;;;;;4979036;28;20113;-76
2022/06/07 07:17:09;;;;;;;11.73;7.65;;;;;;;;;;4984881;28;20073;-75
2022/06/07 07:19:35;;;;;;;9.88;7.32;;;;;;;;;;4982891;28;20458;-77
2022/06/07 07:22:01;;;;;;;11.23;8.38;;;;;;;;;;4986300;28;20035;-76
2022/06/07 07:24:27;;;;;;;12.90;8.20;;;;;;;;;;4978256;28;20049;-76
2022/06/07 07:26:54;;;;;;;11.85;7.82;;;;;;;;;;4982771;28;20034;-76
2022/06/07 07:29:22;;;;;;;12.43;7.47;;;;;;;;;;5008601;28;20037;-76
2022/06/07 07:31:48;;;;;;;10.60;7.45;;;;;;;;;;4983160;28;20025;-76
2022/06/07 07:34:15;;;;;;;11.57;7.70;;;;;;;;;;4988221;28;20061;-76
2022/06/07 07:36:43;;;;;;;8.95;7.47;;;;;;;;;;4990687;28;20073;-76
2022/06/07 07:39:09;;;;;;;12.27;7.90;;;;;;;;;;4984891;28;20106;-76
2022/06/07 07:41:36;;;;;;;9.45;6.57;;;;;;;;;;4980169;28;20049;-76
2022/06/07 07:44:04;;;;;;;9.93;7.45;;;;;;;;;;4981488;28;20084;-77
2022/06/07 07:46:31;;;;;;;9.57;7.10;;;;;;;;;;4984071;28;20026;-77
2022/06/07 07:48:58;;;;;;;8.40;6.65;;;;;;;;;;4984313;28;20061;-77
2022/06/07 07:51:26;;;;;;;38.47;11.93;;;;;;;;;;4982577;28;20038;-77
2022/06/07 07:53:53;;;;;;;16.50;7.78;;;;;;;;;;4993033;28;20018;-77
2022/06/07 07:56:19;;;;;;;9.75;7.28;;;;;;;;;;4982069;28;20045;-77
2022/06/07 07:58:46;;;;;;;11.85;7.20;;;;;;;;;;4975611;28;20027;-77
2022/06/07 08:01:14;;;;;;;9.75;7.38;;;;;;;;;;4982677;28;20060;-76
2022/06/07 08:03:40;;;;;;;10.38;7.50;;;;;;;;;;4979663;28;20146;-76
2022/06/07 08:06:07;;;;;;;13.57;8.10;;;;;;;;;;4986915;28;20022;-76
2022/06/07 08:08:33;;;;;;;9.52;6.82;;;;;;;;;;4984366;28;20037;-76
2022/06/07 08:11:00;;;;;;;11.52;7.03;;;;;;;;;;4984707;28;20062;-77
2022/06/07 08:13:26;;;;;;;9.73;7.03;;;;;;;;;;4982398;28;20023;-77
2022/06/07 08:15:52;;;;;;;9.60;6.82;;;;;;;;;;4988401;28;20621;-77
2022/06/07 08:18:18;;;;;;;10.77;7.18;;;;;;;;;;4980130;28;20027;-76
2022/06/07 08:20:44;;;;;;;15.98;8.48;;;;;;;;;;4978702;28;20037;-77
2022/06/07 08:23:12;;;;;;;19.60;9.07;;;;;;;;;;4980018;28;20023;-76
2022/06/07 08:25:38;;;;;;;11.38;6.53;;;;;;;;;;4978343;28;20026;-77
2022/06/07 08:28:05;;;;;;;7.18;5.95;;;;;;;;;;4978582;28;20038;-76
2022/06/07 08:30:32;;;;;;;8.25;6.43;;;;;;;;;;4979135;28;20038;-77
2022/06/07 08:32:58;;;;;;;10.45;7.18;;;;;;;;;;4979393;28;20026;-76
2022/06/07 08:38:09;;;;;;;6.55;5.15;;;;;;;;;;4980175;28;20045;-77
2022/06/07 08:40:43;;;;;;;8.63;4.75;;;;;;;;;;4993416;28;20022;-76
2022/06/07 08:43:15;;;;;;;6.38;5.70;;;;;;;;;;4995765;28;20015;-76
2022/06/07 08:45:42;;;;;;;7.50;5.32;;;;;;;;;;4986135;28;20449;-76
2022/06/07 08:48:08;;;;;;;9.68;5.65;;;;;;;;;;4981592;28;20503;-76
2022/06/07 08:50:36;;;;;;;6.15;5.03;;;;;;;;;;4981389;28;20038;-76
2022/06/07 08:53:11;;;;;;;7.22;5.25;;;;;;;;;;4980546;28;20053;-77
2022/06/07 08:55:42;;;;;;;7.00;5.60;;;;;;;;;;4992288;28;20457;-77
2022/06/07 08:58:11;;;;;;;7.15;5.45;;;;;;;;;;4992759;28;20105;-77
2022/06/07 09:00:40;;;;;;;6.15;4.82;;;;;;;;;;4993223;28;20043;-77
2022/06/07 09:03:32;;;;;;;5.78;5.03;;;;;;;;;;4999974;28;20031;-76
2022/06/07 09:06:00;;;;;;;6.25;5.00;;;;;;;;;;4958372;28;20074;-76
2022/06/07 09:08:39;;;;;;;5.22;4.72;;;;;;;;;;4978802;28;20549;-77
2022/06/07 09:13:54;;;;;;;5.57;4.10;;;;;;;;;;4985051;28;20503;-76
2022/06/07 09:16:20;;;;;;;5.95;4.63;;;;;;;;;;4984055;28;20037;-76
2022/06/07 09:18:50;;;;;;;5.55;4.00;;;;;;;;;;4981865;28;20026;-76
2022/06/07 09:21:36;;;;;;;5.43;4.03;;;;;;;;;;4980175;28;20392;-76
2022/06/07 09:24:02;;;;;;;5.50;4.40;;;;;;;;;;4978900;28;20053;-76
2022/06/07 09:26:33;;;;;;;4.50;3.72;;;;;;;;;;4980380;28;20041;-77
2022/06/07 09:29:09;;;;;;;5.80;4.30;;;;;;;;;;4981736;28;20031;-77
2022/06/07 09:31:38;;;;;;;5.20;4.40;;;;;;;;;;4978792;28;20026;-77
2022/06/07 09:34:06;;;;;;;5.03;3.80;;;;;;;;;;4982033;28;20109;-77
2022/06/07 09:36:40;;;;;;;4.93;4.28;;;;;;;;;;4979477;28;20129;-77
2022/06/07 09:39:08;;;;;;;4.35;3.88;;;;;;;;;;4977105;28;20089;-77
2022/06/07 09:41:40;;;;;;;5.00;3.97;;;;;;;;;;4980493;28;20030;-77
2022/06/07 09:44:25;;;;;;;6.85;4.10;;;;;;;;;;4979074;28;21223;-77
2022/06/07 09:47:11;;;;;;;4.57;3.85;;;;;;;;;;4982637;28;20019;-77
2022/06/07 09:49:40;;;;;;;8.13;4.32;;;;;;;;;;4983253;28;20026;-78
2022/06/07 09:52:20;;;;;;;5.68;4.45;;;;;;;;;;4979688;28;20022;-77
2022/06/07 09:54:48;;;;;;;5.28;4.20;;;;;;;;;;4980875;28;20030;-77
2022/06/07 09:57:17;;;;;;;6.57;4.40;;;;;;;;;;4987563;28;20019;-77
2022/06/07 09:59:50;;;;;;;5.20;3.95;;;;;;;;;;4982377;28;20547;-77
2022/06/07 10:02:36;;;;;;;4.82;4.00;;;;;;;;;;4981556;28;20518;-77
2022/06/07 10:05:12;;;;;;;5.60;3.88;;;;;;;;;;4982013;28;20281;-77
2022/06/07 10:07:43;;;;;;;4.07;3.60;;;;;;;;;;4978713;28;20033;-77
2022/06/07 10:10:20;;;;;;;4.15;3.53;;;;;;;;;;4979812;28;20022;-77
2022/06/07 10:13:03;;;;;;;4.72;3.55;;;;;;;;;;4984910;28;20029;-77
2022/06/07 10:15:35;;;;;;;4.97;3.20;;;;;;;;;;4980356;28;20031;-77
2022/06/07 10:18:01;;;;;;;4.38;3.95;;;;;;;;;;4977201;28;20041;-76
2022/06/07 10:20:27;;;;;;;4.22;3.80;;;;;;;;;;4979126;28;20029;-77
2022/06/07 10:22:56;;;;;;;5.03;3.70;;;;;;;;;;4977542;28;20053;-77
2022/06/07 10:25:33;;;;;;;5.50;4.07;;;;;;;;;;4977142;28;20041;-77
2022/06/07 10:28:15;;;;;;;4.85;4.07;;;;;;;;;;4981414;28;20034;-77
2022/06/07 10:30:51;;;;;;;8.55;4.57;;;;;;;;;;4983237;28;20510;-76
2022/06/07 10:33:26;;;;;;;5.57;4.80;;;;;;;;;;4981818;28;20030;-77
2022/06/07 10:35:55;;;;;;;6.10;5.50;;;;;;;;;;4980095;28;20037;-77
2022/06/07 10:38:21;;;;;;;7.35;4.93;;;;;;;;;;4982555;28;20372;-77
2022/06/07 10:40:59;;;;;;;5.28;4.68;;;;;;;;;;4995311;28;20101;-76
2022/06/07 10:43:48;;;;;;;6.68;5.60;;;;;;;;;;4977708;28;20032;-77
2022/06/07 10:46:17;;;;;;;7.35;5.10;;;;;;;;;;4972803;28;20429;-76
2022/06/07 10:48:46;;;;;;;6.43;4.82;;;;;;;;;;4985358;28;20026;-77
2022/06/07 10:54:04;;;;;;;6.90;5.47;;;;;;;;;;4987060;28;20403;-77
2022/06/07 10:56:33;;;;;;;6.20;5.28;;;;;;;;;;4986857;28;20511;-76
2022/06/07 10:59:01;;;;;;;6.05;4.45;;;;;;;;;;4990031;28;20100;-76
2022/06/07 11:01:37;;;;;;;6.65;4.88;;;;;;;;;;5000922;28;20096;-77
2022/06/07 11:10:01;;;;;;;5.68;4.72;;;;;;;;;;4985589;28;20081;-77
2022/06/07 11:12:30;;;;;;;7.50;5.35;;;;;;;;;;4991502;28;20033;-77
2022/06/07 11:15:15;;;;;;;6.63;4.70;;;;;;;;;;4992373;28;20117;-77
2022/06/07 11:17:47;;;;;;;6.03;4.97;;;;;;;;;;4986634;28;20026;-77
2022/06/07 11:20:24;;;;;;;6.25;4.65;;;;;;;;;;4991318;28;20049;-76
2022/06/07 11:22:57;;;;;;;13.85;7.88;;;;;;;;;;4985836;28;20023;-78
2022/06/07 11:25:33;;;;;;;6.18;4.85;;;;;;;;;;4992164;28;20050;-77
2022/06/07 11:28:01;;;;;;;10.13;5.65;;;;;;;;;;4991108;28;20030;-77
2022/06/07 11:30:41;;;;;;;6.50;5.80;;;;;;;;;;4989581;28;20579;-76
2022/06/07 11:33:26;;;;;;;7.75;5.53;;;;;;;;;;4988661;28;20527;-77
2022/06/07 11:36:04;;;;;;;11.93;4.95;;;;;;;;;;4998778;28;20574;-77
2022/06/07 11:38:31;;;;;;;7.40;5.28;;;;;;;;;;4988430;28;20774;-77
2022/06/07 11:43:56;;;;;;;5.80;5.07;;;;;;;;;;4995601;28;20061;-77
2022/06/07 11:46:42;;;;;;;6.40;4.95;;;;;;;;;;4999925;28;20250;-78
2022/06/07 11:49:29;;;;;;;8.35;4.97;;;;;;;;;;4957594;28;20528;-77
2022/06/07 11:51:57;;;;;;;6.05;4.38;;;;;;;;;;4980915;28;20042;-77
2022/06/07 11:54:28;;;;;;;6.15;4.97;;;;;;;;;;4988757;28;20117;-76
2022/06/07 11:56:58;;;;;;;6.40;5.05;;;;;;;;;;4984899;28;20041;-77
2022/06/07 11:59:24;;;;;;;7.05;4.75;;;;;;;;;;4989800;28;20077;-77
2022/06/07 12:01:54;;;;;;;9.50;5.43;;;;;;;;;;5002745;28;20022;-76
2022/06/07 12:04:29;;;;;;;6.60;4.93;;;;;;;;;;4987610;28;20103;-77
2022/06/07 12:06:58;;;;;;;9.98;5.03;;;;;;;;;;4988053;28;20022;-77
2022/06/07 12:09:24;;;;;;;5.68;4.35;;;;;;;;;;4988907;28;20560;-77
2022/06/07 12:11:50;;;;;;;5.00;4.22;;;;;;;;;;4981780;28;20029;-77
2022/06/07 12:14:20;;;;;;;10.25;5.05;;;;;;;;;;4986414;28;20042;-76
2022/06/07 12:17:00;;;;;;;8.80;4.72;;;;;;;;;;4990737;28;20026;-77
2022/06/07 12:19:31;;;;;;;8.23;5.18;;;;;;;;;;4985830;28;20098;-78
2022/06/07 12:22:12;;;;;;;5.05;4.53;;;;;;;;;;4998693;28;20030;-77
2022/06/07 12:24:47;;;;;;;4.75;4.07;;;;;;;;;;4992008;28;20072;-77
2022/06/07 12:27:28;;;;;;;8.63;5.03;;;;;;;;;;4987263;28;20026;-76
2022/06/07 12:29:57;;;;;;;6.07;4.53;;;;;;;;;;4995623;28;20077;-76
2022/06/07 12:32:36;;;;;;;5.63;4.75;;;;;;;;;;4989756;28;20027;-76
2022/06/07 12:35:05;;;;;;;7.28;4.63;;;;;;;;;;4979253;28;20027;-76
2022/06/07 12:37:32;;;;;;;9.38;5.03;;;;;;;;;;4987911;28;20030;-76
2022/06/07 12:39:58;;;;;;;7.65;5.32;;;;;;;;;;4999149;28;20026;-75
2022/06/07 12:42:27;;;;;;;5.70;4.50;;;;;;;;;;4984214;28;20500;-77
2022/06/07 12:45:16;;;;;;;6.75;4.65;;;;;;;;;;4978841;28;20356;-75
2022/06/07 12:47:42;;;;;;;9.25;5.32;;;;;;;;;;5008203;28;20088;-77
2022/06/07 12:50:20;;;;;;;6.70;4.88;;;;;;;;;;4993536;28;20384;-77
2022/06/07 12:52:54;;;;;;;5.50;4.40;;;;;;;;;;4990144;28;20081;-73
2022/06/07 12:55:23;;;;;;;5.55;4.85;;;;;;;;;;4986962;28;20392;-78
2022/06/07 12:57:52;;;;;;;5.95;5.00;;;;;;;;;;4983399;28;20027;-77
2022/06/07 13:00:22;;;;;;;6.97;5.03;;;;;;;;;;4981790;28;20046;-77
2022/06/07 13:02:59;;;;;;;10.65;4.93;;;;;;;;;;4985510;28;20026;-76
2022/06/07 13:05:34;;;;;;;6.00;4.75;;;;;;;;;;4987898;28;20630;-77
2022/06/07 13:08:01;;;;;;;5.88;4.57;;;;;;;;;;4984687;28;20026;-77
2022/06/07 13:10:28;;;;;;;6.40;4.47;;;;;;;;;;4984693;28;20369;-76
2022/06/07 13:12:58;;;;;;;6.07;4.03;;;;;;;;;;4981996;28;20519;-77
2022/06/07 13:15:26;;;;;;;5.05;4.15;;;;;;;;;;4981334;28;20038;-77
2022/06/07 13:18:04;;;;;;;5.47;4.82;;;;;;;;;;4982387;28;20034;-77
2022/06/07 13:20:36;;;;;;;5.22;4.72;;;;;;;;;;4980380;28;20027;-78
2022/06/07 13:23:11;;;;;;;7.55;5.07;;;;;;;;;;4984544;28;20026;-77
2022/06/07 13:25:37;;;;;;;5.93;4.95;;;;;;;;;;4979987;28;20037;-77
2022/06/07 13:28:07;;;;;;;6.22;4.70;;;;;;;;;;4997324;28;20399;-77
2022/06/07 13:30:33;;;;;;;11.95;5.60;;;;;;;;;;4981267;28;20041;-79
2022/06/07 13:33:05;;;;;;;7.63;5.30;;;;;;;;;;4982044;28;20031;-76
2022/06/07 13:35:40;;;;;;;5.50;4.85;;;;;;;;;;4982070;28;20053;-77
2022/06/07 13:38:06;;;;;;;;;;;;;;;;;;4983144;28;20025;-77
2022/06/07 13:40:34;;;;;;;9.68;4.80;;;;;;;;;;4981237;28;20001;-77
2022/06/07 13:43:00;;;;;;;6.25;5.03;;;;;;;;;;4986752;28;20089;-77
2022/06/07 13:45:28;;;;;;;5.10;4.60;;;;;;;;;;4983532;28;20022;-76
2022/06/07 13:48:00;;;;;;;7.13;4.57;;;;;;;;;;4981515;28;20038;-77
2022/06/07 13:53:27;;;;;;;5.45;4.40;;;;;;;;;;4977913;28;20313;-77
2022/06/07 13:55:57;;;;;;;5.22;4.53;;;;;;;;;;4982982;28;20049;-77
2022/06/07 13:58:29;;;;;;;8.07;4.55;;;;;;;;;;4983316;28;20034;-77
2022/06/07 14:00:59;;;;;;;5.38;4.05;;;;;;;;;;4982423;28;20051;-77
2022/06/07 14:03:31;;;;;;;5.22;4.72;;;;;;;;;;4978170;28;20034;-77
2022/06/07 14:05:57;;;;;;;4.88;4.30;;;;;;;;;;4978839;28;20435;-77
2022/06/07 14:08:23;;;;;;;5.65;4.40;;;;;;;;;;4981749;28;20038;-78
2022/06/07 14:10:50;;;;;;;5.05;4.55;;;;;;;;;;4977183;28;20492;-77
2022/06/07 14:13:17;;;;;;;6.80;4.30;;;;;;;;;;4981837;28;20113;-77
2022/06/07 14:15:45;;;;;;;7.43;5.28;;;;;;;;;;4980651;28;20054;-78
2022/06/07 14:18:14;;;;;;;5.15;4.65;;;;;;;;;;4977847;28;20026;-77
2022/06/07 14:20:40;;;;;;;4.88;4.38;;;;;;;;;;4978517;28;20030;-77
2022/06/07 14:23:10;;;;;;;5.80;4.78;;;;;;;;;;4979454;28;20081;-77
2022/06/07 14:25:36;;;;;;;5.60;4.57;;;;;;;;;;4980023;28;20061;-77
2022/06/07 14:28:02;;;;;;;5.35;4.85;;;;;;;;;;4980707;28;20034;-79
2022/06/07 14:30:28;;;;;;;4.95;4.13;;;;;;;;;;4977514;28;20110;-79
2022/06/07 14:32:55;;;;;;;6.72;4.65;;;;;;;;;;4976685;28;20035;-80
2022/06/07 14:35:26;;;;;;;4.90;4.05;;;;;;;;;;4979516;28;20058;-78
2022/06/07 14:37:54;;;;;;;6.05;4.38;;;;;;;;;;4976271;28;20777;-78
2022/06/07 14:40:25;;;;;;;5.05;4.15;;;;;;;;;;4979597;28;20053;-77
2022/06/07 14:42:53;;;;;;;6.57;4.68;;;;;;;;;;4983002;28;20073;-79
2022/06/07 14:45:21;;;;;;;8.18;4.60;;;;;;;;;;4977425;28;20123;-79
2022/06/07 14:47:48;;;;;;;5.47;4.35;;;;;;;;;;4973852;28;20057;-78
2022/06/07 14:50:17;;;;;;;5.80;3.97;;;;;;;;;;4979690;28;20559;-77
2022/06/07 14:52:45;;;;;;;9.13;4.53;;;;;;;;;;4973833;28;20027;-78
2022/06/07 14:55:12;;;;;;;4.88;4.20;;;;;;;;;;4976381;28;20073;-77
2022/06/07 14:57:42;;;;;;;5.03;3.60;;;;;;;;;;4975915;28;20046;-76
2022/06/07 15:00:09;;;;;;;6.20;3.55;;;;;;;;;;4973946;28;20476;-78
2022/06/07 15:02:37;;;;;;;3.92;3.30;;;;;;;;;;4973621;28;20427;-79
2022/06/07 15:05:13;;;;;;;4.03;3.28;;;;;;;;;;4979833;28;20026;-79
2022/06/07 15:07:47;;;;;;;3.53;3.22;;;;;;;;;;4980558;28;20035;-78
2022/06/07 15:10:15;;;;;;;3.80;3.35;;;;;;;;;;4981283;28;20571;-76
2022/06/07 15:12:41;;;;;;;4.00;3.50;;;;;;;;;;4985241;28;20162;-77
2022/06/07 15:15:07;;;;;;;4.80;3.95;;;;;;;;;;4980271;28;20037;-77
2022/06/07 15:17:36;;;;;;;3.40;3.10;;;;;;;;;;4980072;28;20045;-77